createdAt,value
2017-09-25T00:01:03.610Z,72.70
2017-09-25T00:03:31.107Z,72.80
2017-09-25T00:05:58.625Z,72.80
2017-09-25T00:08:26.121Z,73.20
2017-09-25T00:10:53.637Z,73.00
2017-09-25T00:13:21.898Z,72.90
2017-09-25T00:15:50.258Z,73.00
2017-09-25T00:18:17.791Z,72.90
2017-09-25T00:20:45.334Z,73.00
2017-09-25T00:23:12.833Z,73.00
2017-09-25T00:25:40.350Z,72.80
2017-09-25T00:28:07.850Z,72.70
2017-09-25T00:30:35.366Z,73.00
2017-09-25T00:33:02.864Z,73.90
2017-09-25T00:35:30.386Z,74.20
2017-09-25T00:37:57.878Z,73.70
2017-09-25T00:40:25.397Z,73.50
2017-09-25T00:42:52.889Z,73.60
2017-09-25T00:45:20.430Z,73.60
2017-09-25T00:47:47.925Z,73.40
2017-09-25T00:50:15.442Z,73.50
2017-09-25T00:52:54.768Z,73.40
2017-09-25T00:55:28.142Z,73.50
2017-09-25T00:57:55.644Z,73.60
2017-09-25T01:00:35.022Z,73.90
2017-09-25T01:06:28.726Z,74.70
2017-09-25T01:08:56.989Z,74.80
2017-09-25T01:11:25.265Z,74.70
2017-09-25T01:13:53.521Z,74.70
2017-09-25T01:16:21.045Z,74.70
2017-09-25T01:18:48.535Z,75.00
2017-09-25T01:21:16.050Z,75.30
2017-09-25T01:23:43.542Z,75.60
2017-09-25T01:26:11.058Z,76.70
2017-09-25T01:28:38.549Z,76.30
2017-09-25T01:31:06.073Z,76.30
2017-09-25T01:33:33.561Z,76.00
2017-09-25T01:36:01.072Z,75.90
2017-09-25T01:38:29.330Z,75.70
2017-09-25T01:40:56.851Z,75.70
2017-09-25T01:43:24.353Z,75.60
2017-09-25T01:45:52.632Z,75.10
2017-09-25T01:48:20.889Z,75.70
2017-09-25T01:50:48.406Z,75.50
2017-09-25T01:53:15.938Z,75.50
2017-09-25T01:55:44.197Z,75.60
2017-09-25T01:58:11.714Z,75.50
2017-09-25T02:00:39.217Z,74.90
2017-09-25T02:03:07.497Z,75.30
2017-09-25T02:05:35.759Z,75.10
2017-09-25T02:08:03.257Z,75.10
2017-09-25T02:10:30.779Z,75.70
2017-09-25T02:12:58.274Z,75.20
2017-09-25T02:15:25.795Z,75.40
2017-09-25T02:17:53.303Z,75.40
2017-09-25T02:20:20.801Z,76.10
2017-09-25T02:22:48.322Z,75.30
2017-09-25T02:25:15.818Z,75.60
2017-09-25T02:27:43.343Z,75.80
2017-09-25T02:30:10.838Z,76.00
2017-09-25T02:32:38.347Z,75.90
2017-09-25T02:35:05.870Z,76.00
2017-09-25T02:37:34.135Z,76.70
2017-09-25T02:40:01.659Z,76.70
2017-09-25T02:42:29.158Z,76.50
2017-09-25T02:44:56.653Z,76.70
2017-09-25T02:47:24.173Z,77.40
2017-09-25T02:49:51.690Z,76.30
2017-09-25T02:52:19.182Z,76.40
2017-09-25T02:54:46.703Z,76.40
2017-09-25T02:57:14.202Z,76.40
2017-09-25T02:59:41.707Z,76.40
2017-09-25T03:02:09.227Z,76.70
2017-09-25T03:04:37.499Z,77.40
2017-09-25T03:07:05.771Z,77.20
2017-09-25T03:09:33.299Z,77.10
2017-09-25T03:12:00.794Z,77.20
2017-09-25T03:14:29.062Z,76.90
2017-09-25T03:16:56.596Z,76.80
2017-09-25T03:19:24.150Z,77.80
2017-09-25T03:21:51.649Z,76.80
2017-09-25T03:24:19.171Z,76.90
2017-09-25T03:26:47.438Z,77.60
2017-09-25T03:29:14.934Z,77.50
2017-09-25T03:31:42.449Z,77.40
2017-09-25T03:34:09.942Z,77.40
2017-09-25T03:36:37.466Z,77.10
2017-09-25T03:39:04.960Z,77.30
2017-09-25T03:41:32.483Z,77.20
2017-09-25T03:43:59.978Z,77.00
2017-09-25T03:46:27.494Z,77.10
2017-09-25T03:48:54.998Z,77.50
2017-09-25T03:51:22.519Z,77.40
2017-09-25T03:53:50.018Z,77.10
2017-09-25T03:56:17.535Z,77.10
2017-09-25T03:58:45.030Z,77.10
2017-09-25T04:01:12.551Z,76.90
2017-09-25T04:03:40.056Z,76.90
2017-09-25T04:06:07.574Z,77.00
2017-09-25T04:08:35.078Z,77.70
2017-09-25T04:11:03.362Z,78.00
2017-09-25T04:13:31.627Z,78.00
2017-09-25T04:15:59.146Z,78.00
2017-09-25T04:18:26.641Z,78.50
2017-09-25T04:20:54.157Z,78.60
2017-09-25T04:23:21.656Z,80.00
2017-09-25T04:25:49.179Z,80.20
2017-09-25T04:28:16.679Z,80.00
2017-09-25T04:30:44.967Z,81.00
2017-09-25T04:33:13.231Z,81.90
2017-09-25T04:35:41.518Z,81.40
2017-09-25T04:38:09.782Z,81.80
2017-09-25T04:40:37.301Z,81.70
2017-09-25T04:43:04.794Z,82.40
2017-09-25T04:45:32.309Z,81.90
2017-09-25T04:47:59.801Z,81.70
2017-09-25T04:50:27.314Z,81.70
2017-09-25T04:52:54.814Z,83.40
2017-09-25T04:55:22.339Z,81.70
2017-09-25T04:57:49.829Z,82.30
2017-09-25T05:00:17.330Z,83.10
2017-09-25T05:02:44.846Z,83.10
2017-09-25T05:05:12.356Z,83.10
2017-09-25T05:07:39.870Z,83.50
2017-09-25T05:10:07.365Z,83.70
2017-09-25T05:12:34.882Z,84.20
2017-09-25T05:15:02.384Z,84.50
2017-09-25T05:17:29.903Z,84.60
2017-09-25T05:19:57.398Z,84.30
2017-09-25T05:22:24.918Z,84.10
2017-09-25T05:24:52.422Z,84.10
2017-09-25T05:27:19.947Z,83.80
2017-09-25T05:29:48.210Z,83.70
2017-09-25T05:32:15.728Z,83.70
2017-09-25T05:34:43.234Z,83.80
2017-09-25T05:37:10.754Z,83.90
2017-09-25T05:39:38.254Z,83.80
2017-09-25T05:42:05.772Z,83.70
2017-09-25T05:44:33.295Z,83.80
2017-09-25T05:47:01.569Z,84.00
2017-09-25T05:49:29.838Z,84.20
2017-09-25T05:51:58.130Z,84.50
2017-09-25T05:54:25.642Z,84.50
2017-09-25T05:56:53.166Z,84.70
2017-09-25T05:59:20.674Z,86.30
2017-09-25T06:01:48.201Z,85.90
2017-09-25T06:04:15.703Z,86.30
2017-09-25T06:06:43.986Z,87.60
2017-09-25T06:09:12.250Z,87.00
2017-09-25T06:11:40.551Z,86.40
2017-09-25T06:14:08.050Z,86.40
2017-09-25T06:16:35.570Z,86.60
2017-09-25T06:19:03.066Z,86.20
2017-09-25T06:21:30.596Z,85.70
2017-09-25T06:23:58.102Z,85.60
2017-09-25T06:26:25.622Z,85.70
2017-09-25T06:28:53.126Z,85.30
2017-09-25T06:31:20.655Z,85.00
2017-09-25T06:33:48.154Z,84.60
2017-09-25T06:36:16.442Z,84.30
2017-09-25T06:38:44.702Z,84.50
2017-09-25T06:41:12.222Z,84.40
2017-09-25T06:43:39.722Z,83.70
2017-09-25T06:46:07.238Z,83.60
2017-09-25T06:48:34.734Z,83.30
2017-09-25T06:51:02.250Z,83.30
2017-09-25T06:53:29.742Z,82.80
2017-09-25T06:55:57.258Z,82.50
2017-09-25T06:58:24.754Z,82.50
2017-09-25T07:00:52.270Z,81.80
2017-09-25T07:03:19.763Z,81.70
2017-09-25T07:05:47.286Z,80.40
2017-09-25T07:08:14.782Z,80.40
2017-09-25T07:10:42.306Z,80.40
2017-09-25T07:13:09.806Z,80.50
2017-09-25T07:15:37.322Z,80.10
2017-09-25T07:18:04.822Z,79.10
2017-09-25T07:20:32.338Z,78.60
2017-09-25T07:22:59.839Z,78.50
2017-09-25T07:25:27.378Z,78.10
2017-09-25T07:27:54.874Z,76.50
2017-09-25T07:30:23.158Z,75.30
2017-09-25T07:32:51.422Z,75.50
2017-09-25T07:35:18.946Z,74.70
2017-09-25T07:37:46.446Z,74.00
2017-09-25T07:40:14.783Z,74.50
2017-09-25T07:42:42.282Z,74.50
2017-09-25T07:45:10.562Z,74.20
2017-09-25T07:47:38.829Z,74.60
2017-09-25T07:50:07.110Z,75.60
2017-09-25T07:52:35.382Z,74.90
2017-09-25T07:55:03.674Z,75.10
2017-09-25T07:57:31.938Z,74.80
2017-09-25T08:00:00.222Z,75.10
2017-09-25T08:02:28.486Z,74.40
2017-09-25T08:04:56.006Z,74.30
2017-09-25T08:07:23.497Z,75.90
2017-09-25T08:09:51.018Z,74.90
2017-09-25T08:12:18.510Z,74.60
2017-09-25T08:14:46.034Z,74.30
2017-09-25T08:17:13.526Z,73.50
2017-09-25T08:19:41.045Z,73.60
2017-09-25T08:22:08.538Z,73.50
2017-09-25T08:24:36.029Z,73.20
2017-09-25T08:27:04.341Z,72.20
2017-09-25T08:29:31.826Z,72.20
2017-09-25T08:31:59.338Z,71.70
2017-09-25T08:34:26.843Z,71.50
2017-09-25T08:36:54.366Z,71.00
2017-09-25T08:39:21.861Z,70.10
2017-09-25T08:41:49.377Z,69.70
2017-09-25T08:44:16.878Z,69.60
2017-09-25T08:46:44.393Z,69.30
2017-09-25T08:49:11.890Z,68.00
2017-09-25T08:51:39.409Z,67.90
2017-09-25T08:54:06.901Z,67.30
2017-09-25T08:56:34.423Z,64.70
2017-09-25T08:59:01.913Z,62.90
2017-09-25T09:01:29.430Z,60.60
2017-09-25T09:03:56.931Z,59.10
2017-09-25T09:06:24.450Z,57.10
2017-09-25T09:08:51.951Z,56.80
2017-09-25T09:11:19.475Z,55.70
2017-09-25T09:13:46.978Z,55.20
2017-09-25T09:16:14.495Z,54.80
2017-09-25T09:18:41.990Z,53.80
2017-09-25T09:21:09.509Z,53.30
2017-09-25T09:23:37.018Z,51.70
2017-09-25T09:26:04.542Z,50.00
2017-09-25T09:28:32.042Z,49.50
2017-09-25T09:30:59.562Z,45.40
2017-09-25T09:33:27.062Z,43.60
2017-09-25T09:35:55.346Z,40.40
2017-09-25T09:38:23.606Z,40.20
2017-09-25T09:40:51.122Z,40.10
2017-09-25T09:43:18.614Z,40.40
2017-09-25T09:45:46.134Z,40.20
2017-09-25T09:48:13.638Z,38.30
2017-09-25T09:50:41.162Z,36.70
2017-09-25T09:53:08.658Z,36.10
2017-09-25T09:55:36.192Z,34.40
2017-09-25T09:58:03.695Z,32.50
2017-09-25T10:00:31.978Z,28.90
2017-09-25T10:02:59.503Z,28.80
2017-09-25T10:05:27.029Z,27.80
2017-09-25T10:07:54.771Z,27.40
2017-09-25T10:10:22.294Z,26.30
2017-09-25T10:12:49.791Z,25.70
2017-09-25T10:15:17.296Z,25.50
2017-09-25T10:17:44.816Z,26.50
2017-09-25T10:20:12.315Z,27.00
2017-09-25T10:22:39.834Z,27.20
2017-09-25T10:25:07.365Z,27.90
2017-09-25T10:27:35.634Z,29.40
2017-09-25T10:30:03.895Z,29.60
2017-09-25T10:32:31.422Z,29.60
2017-09-25T10:34:58.914Z,29.60
2017-09-25T10:37:26.435Z,30.00
2017-09-25T10:39:53.930Z,30.60
2017-09-25T10:42:21.446Z,30.60
2017-09-25T10:44:48.938Z,30.70
2017-09-25T10:47:16.455Z,30.80
2017-09-25T10:49:43.946Z,30.10
2017-09-25T10:52:11.467Z,29.40
2017-09-25T10:54:38.962Z,28.20
2017-09-25T10:57:07.242Z,26.60
2017-09-25T10:59:34.725Z,26.60
2017-09-25T11:02:02.998Z,25.50
2017-09-25T11:04:31.248Z,25.70
2017-09-25T11:06:58.770Z,25.70
2017-09-25T11:09:26.257Z,25.80
2017-09-25T11:11:53.761Z,26.70
2017-09-25T11:14:22.009Z,28.70
2017-09-25T11:16:49.513Z,28.60
2017-09-25T11:19:16.997Z,29.20
2017-09-25T11:21:44.506Z,29.30
2017-09-25T11:24:12.761Z,31.40
2017-09-25T11:26:40.266Z,31.30
2017-09-25T11:29:07.749Z,32.30
2017-09-25T11:31:35.269Z,31.60
2017-09-25T11:34:02.769Z,31.60
2017-09-25T11:36:30.289Z,32.50
2017-09-25T11:38:57.777Z,33.90
2017-09-25T11:41:25.282Z,33.80
2017-09-25T11:43:53.532Z,34.30
2017-09-25T11:46:21.041Z,34.30
2017-09-25T11:48:48.525Z,34.80
2017-09-25T11:51:16.029Z,34.70
2017-09-25T11:53:43.513Z,35.40
2017-09-25T11:56:11.021Z,34.10
2017-09-25T11:58:38.505Z,35.70
2017-09-25T12:01:06.781Z,37.50
2017-09-25T12:03:35.033Z,38.10
2017-09-25T12:06:02.538Z,38.00
2017-09-25T12:08:30.026Z,36.50
2017-09-25T12:10:57.549Z,36.40
2017-09-25T12:13:25.801Z,36.90
2017-09-25T12:15:53.305Z,36.90
2017-09-25T12:18:20.789Z,37.10
2017-09-25T12:20:48.297Z,37.20
2017-09-25T12:23:16.551Z,36.20
2017-09-25T12:25:44.059Z,36.20
2017-09-25T12:28:11.554Z,36.30
2017-09-25T12:30:39.062Z,36.50
2017-09-25T12:33:06.545Z,36.00
2017-09-25T12:35:34.057Z,35.90
2017-09-25T12:38:02.305Z,34.50
2017-09-25T12:40:29.816Z,34.50
2017-09-25T12:42:57.309Z,32.70
2017-09-25T12:45:24.813Z,32.50
2017-09-25T12:47:53.085Z,31.60
2017-09-25T12:50:21.356Z,30.90
2017-09-25T12:52:49.609Z,30.00
2017-09-25T12:55:17.114Z,30.00
2017-09-25T12:57:44.606Z,29.90
2017-09-25T13:00:12.108Z,29.10
2017-09-25T13:02:40.357Z,30.40
2017-09-25T13:05:07.862Z,30.40
2017-09-25T13:07:35.358Z,31.40
2017-09-25T13:10:02.892Z,32.20
2017-09-25T13:12:30.377Z,32.00
2017-09-25T13:14:57.886Z,33.40
2017-09-25T13:17:26.145Z,35.90
2017-09-25T13:19:54.425Z,36.20
2017-09-25T13:22:22.677Z,35.90
2017-09-25T13:24:50.167Z,36.00
2017-09-25T13:27:18.442Z,37.10
2017-09-25T13:29:46.695Z,35.80
2017-09-25T13:32:14.204Z,35.80
2017-09-25T13:34:41.689Z,34.70
2017-09-25T13:37:09.201Z,34.20
2017-09-25T13:39:36.709Z,35.20
2017-09-25T13:42:04.213Z,36.20
2017-09-25T13:44:32.466Z,37.10
2017-09-25T13:46:59.981Z,37.10
2017-09-25T13:49:27.465Z,36.70
2017-09-25T13:51:54.969Z,37.40
2017-09-25T13:54:22.457Z,38.30
2017-09-25T13:56:49.965Z,39.10
2017-09-25T14:04:23.373Z,40.80
2017-09-25T14:06:50.878Z,41.10
2017-09-25T14:09:18.370Z,41.60
2017-09-25T14:11:45.880Z,41.30
2017-09-25T14:14:14.145Z,42.10
2017-09-25T14:16:42.422Z,43.60
2017-09-25T14:19:10.677Z,43.10
2017-09-25T14:21:38.182Z,43.10
2017-09-25T14:24:05.669Z,43.20
2017-09-25T14:26:33.178Z,43.40
2017-09-25T14:29:01.433Z,43.80
2017-09-25T14:31:28.953Z,43.70
2017-09-25T14:33:56.445Z,44.00
2017-09-25T14:36:23.955Z,43.80
2017-09-25T14:38:51.445Z,44.40
2017-09-25T14:41:18.949Z,44.20
2017-09-25T14:43:47.197Z,44.80
2017-09-25T14:46:14.705Z,44.70
2017-09-25T14:48:42.190Z,44.80
2017-09-25T14:51:09.694Z,44.50
2017-09-25T14:53:37.945Z,44.80
2017-09-25T14:56:05.454Z,44.80
2017-09-25T14:58:32.942Z,45.00
2017-09-25T15:01:00.445Z,44.30
2017-09-25T15:03:28.693Z,43.80
2017-09-25T15:05:56.198Z,43.70
2017-09-25T15:08:23.691Z,44.00
2017-09-25T15:10:51.205Z,44.10
2017-09-25T15:13:19.457Z,43.50
2017-09-25T15:15:46.969Z,43.50
2017-09-25T15:18:14.454Z,43.40
2017-09-25T15:20:41.961Z,43.50
2017-09-25T15:23:09.445Z,42.50
2017-09-25T15:25:36.958Z,42.70
2017-09-25T15:28:05.208Z,42.70
2017-09-25T15:30:32.713Z,42.60
2017-09-25T15:33:00.201Z,42.50
2017-09-25T15:35:27.713Z,42.30
2017-09-25T15:37:55.970Z,42.80
2017-09-25T15:40:23.490Z,42.80
2017-09-25T15:42:50.989Z,42.30
2017-09-25T15:45:18.497Z,42.70
2017-09-25T15:47:45.981Z,43.20
2017-09-25T15:50:13.489Z,42.90
2017-09-25T15:52:41.744Z,43.40
2017-09-25T15:55:09.262Z,43.40
2017-09-25T15:57:36.749Z,42.90
2017-09-25T16:00:04.233Z,42.80
2017-09-25T16:02:32.531Z,43.30
2017-09-25T16:05:00.017Z,43.20
2017-09-25T16:07:27.529Z,43.80
2017-09-25T16:09:55.777Z,44.00
2017-09-25T16:12:23.282Z,44.00
2017-09-25T16:14:50.777Z,44.40
2017-09-25T16:17:18.285Z,44.20
2017-09-25T16:19:46.533Z,44.80
2017-09-25T16:22:14.042Z,44.80
2017-09-25T16:24:41.547Z,44.90
2017-09-25T16:27:09.057Z,44.80
2017-09-25T16:29:36.553Z,44.90
2017-09-25T16:32:04.061Z,45.20
2017-09-25T16:34:31.549Z,45.40
2017-09-25T16:36:59.063Z,45.20
2017-09-25T16:39:27.310Z,46.00
2017-09-25T16:41:54.813Z,46.50
2017-09-25T16:44:22.297Z,46.30
2017-09-25T16:46:49.801Z,46.60
2017-09-25T16:49:17.295Z,46.70
2017-09-25T16:51:44.806Z,47.40
2017-09-25T16:54:12.293Z,47.80
2017-09-25T16:56:40.565Z,48.80
2017-09-25T16:59:08.825Z,49.40
2017-09-25T17:01:36.337Z,49.40
2017-09-25T17:04:03.830Z,49.80
2017-09-25T17:06:31.346Z,50.30
2017-09-25T17:08:58.838Z,50.60
2017-09-25T17:11:26.356Z,51.10
2017-09-25T17:13:53.854Z,51.30
2017-09-25T17:16:21.365Z,51.40
2017-09-25T17:18:48.857Z,51.60
2017-09-25T17:21:16.377Z,52.00
2017-09-25T17:23:43.868Z,52.30
2017-09-25T17:26:11.386Z,53.00
2017-09-25T17:28:39.673Z,53.80
2017-09-25T17:31:07.946Z,54.20
2017-09-25T17:33:35.437Z,54.10
2017-09-25T17:36:02.950Z,54.40
2017-09-25T17:38:31.209Z,55.10
2017-09-25T17:40:58.721Z,55.00
2017-09-25T17:43:26.220Z,55.30
2017-09-25T17:45:53.734Z,55.80
2017-09-25T17:48:21.232Z,56.20
2017-09-25T17:50:48.770Z,56.40
2017-09-25T17:53:16.270Z,56.90
2017-09-25T17:55:44.545Z,57.60
2017-09-25T17:58:12.812Z,57.70
2017-09-25T18:00:40.337Z,57.60
2017-09-25T18:03:07.829Z,58.10
2017-09-25T18:05:35.337Z,58.50
2017-09-25T18:08:02.829Z,58.70
2017-09-25T18:10:30.342Z,59.00
2017-09-25T18:12:57.834Z,59.30
2017-09-25T18:15:25.349Z,59.60
2017-09-25T18:17:52.849Z,59.60
2017-09-25T18:20:20.360Z,59.90
2017-09-25T18:22:48.622Z,60.60
2017-09-25T18:25:16.910Z,60.90
2017-09-25T18:27:45.173Z,60.90
2017-09-25T18:30:13.458Z,62.10
2017-09-25T18:32:41.718Z,61.50
2017-09-25T18:35:09.238Z,61.40
2017-09-25T18:37:36.732Z,61.70
2017-09-25T18:40:04.246Z,61.70
2017-09-25T18:42:31.737Z,61.80
2017-09-25T18:44:59.229Z,62.20
2017-09-25T18:47:27.514Z,62.50
2017-09-25T18:49:55.014Z,62.50
2017-09-25T18:52:22.526Z,62.80
2017-09-25T18:54:50.785Z,63.70
2017-09-25T18:57:19.073Z,64.20
2017-09-25T18:59:47.338Z,64.20
2017-09-25T19:02:15.626Z,64.50
2017-09-25T19:04:43.881Z,64.70
2017-09-25T19:07:11.421Z,64.70
2017-09-25T19:09:38.909Z,65.00
2017-09-25T19:12:07.195Z,65.40
2017-09-25T19:14:35.458Z,65.20
2017-09-25T19:17:02.974Z,65.20
2017-09-25T19:19:30.466Z,65.20
2017-09-25T19:21:57.981Z,65.20
2017-09-25T19:24:25.474Z,65.70
2017-09-25T19:26:52.990Z,65.90
2017-09-25T19:29:20.480Z,65.70
2017-09-25T19:31:47.998Z,66.00
2017-09-25T19:34:15.494Z,66.00
2017-09-25T19:36:43.009Z,66.40
2017-09-25T19:39:10.506Z,66.10
2017-09-25T19:41:38.021Z,66.30
2017-09-25T19:44:05.518Z,66.30
2017-09-25T19:46:33.045Z,66.60
2017-09-25T19:52:02.994Z,66.70
2017-09-25T19:54:46.158Z,66.90
2017-09-25T20:00:13.309Z,67.30
2017-09-25T20:02:40.829Z,67.90
2017-09-25T20:05:09.085Z,68.30
2017-09-25T20:07:36.598Z,68.20
2017-09-25T20:10:04.094Z,68.40
2017-09-25T20:12:31.605Z,68.50
2017-09-25T20:15:05.790Z,68.70
2017-09-25T20:17:36.594Z,68.70
2017-09-25T20:20:04.090Z,68.60
2017-09-25T20:22:31.606Z,68.80
2017-09-25T20:24:59.097Z,69.10
2017-09-25T20:27:27.385Z,69.20
2017-09-25T20:29:54.881Z,69.20
2017-09-25T20:32:22.400Z,69.30
2017-09-25T20:34:49.898Z,69.30
2017-09-25T20:37:17.413Z,69.50
2017-09-25T20:39:45.676Z,69.80
2017-09-25T20:45:22.578Z,69.80
2017-09-25T20:47:50.861Z,70.20
2017-09-25T20:50:19.117Z,70.10
2017-09-25T20:52:46.630Z,70.00
2017-09-25T20:55:14.502Z,70.10
2017-09-25T20:57:42.000Z,70.20
2017-09-25T21:00:09.520Z,70.40
2017-09-25T21:02:37.025Z,70.40
2017-09-25T21:05:05.314Z,71.10
2017-09-25T21:07:33.573Z,71.20
2017-09-25T21:10:01.066Z,71.20
2017-09-25T21:12:28.581Z,71.60
2017-09-25T21:14:56.078Z,71.60
2017-09-25T21:17:23.595Z,71.50
2017-09-25T21:19:51.131Z,71.20
2017-09-25T21:22:18.625Z,71.30
2017-09-25T21:24:46.137Z,71.50
2017-09-25T21:27:14.542Z,71.80
2017-09-25T21:29:42.034Z,71.90
2017-09-25T21:32:10.314Z,72.30
2017-09-25T21:34:38.581Z,72.40
2017-09-25T21:37:06.907Z,72.40
2017-09-25T21:39:34.393Z,72.40
2017-09-25T21:42:01.881Z,72.40
2017-09-25T21:44:30.158Z,72.50
2017-09-25T21:46:58.421Z,73.40
2017-09-25T21:49:26.677Z,72.60
2017-09-25T21:51:54.189Z,72.60
2017-09-25T21:54:21.682Z,72.70
2017-09-25T21:56:49.174Z,72.80
2017-09-25T21:59:17.453Z,72.70
2017-09-25T22:01:45.710Z,72.80
2017-09-25T22:04:13.226Z,72.70
2017-09-25T22:06:40.713Z,72.70
2017-09-25T22:09:08.201Z,72.70
2017-09-25T22:11:36.482Z,72.80
2017-09-25T22:14:04.738Z,73.10
2017-09-25T22:16:32.249Z,73.10
2017-09-25T22:18:59.741Z,73.00
2017-09-25T22:21:27.254Z,72.90
2017-09-25T22:23:54.753Z,72.90
2017-09-25T22:26:22.245Z,73.80
2017-09-25T22:28:50.529Z,73.00
2017-09-25T22:31:18.785Z,73.00
2017-09-25T22:33:46.273Z,73.00
2017-09-25T22:36:13.792Z,73.50
2017-09-25T22:38:41.291Z,73.70
2017-09-25T22:41:08.810Z,73.80
2017-09-25T22:43:38.133Z,73.50
2017-09-25T22:46:06.390Z,74.20
2017-09-25T22:48:33.906Z,74.20
2017-09-25T22:51:01.398Z,74.10
2017-09-25T22:53:28.889Z,74.10
2017-09-25T22:55:57.166Z,74.40
2017-09-25T22:58:25.428Z,74.40
2017-09-25T23:00:53.686Z,75.00
2017-09-25T23:03:21.197Z,74.50
2017-09-25T23:05:53.685Z,74.60
2017-09-25T23:08:21.198Z,74.70
2017-09-25T23:10:49.453Z,75.10
2017-09-25T23:13:16.950Z,75.00
2017-09-25T23:15:44.461Z,75.10
2017-09-25T23:18:12.713Z,74.60
2017-09-25T23:20:40.201Z,74.60
2017-09-25T23:23:07.719Z,74.50
2017-09-25T23:25:35.211Z,74.50
2017-09-25T23:28:02.725Z,74.60
2017-09-25T23:30:42.913Z,74.70
2017-09-25T23:33:10.434Z,75.30
2017-09-25T23:35:37.926Z,74.80
2017-09-25T23:38:05.422Z,74.90
2017-09-25T23:40:32.933Z,74.60
2017-09-25T23:43:00.422Z,74.60
2017-09-25T23:45:27.919Z,74.60
2017-09-25T23:47:56.195Z,74.60
2017-09-25T23:50:24.449Z,74.90
2017-09-25T23:52:51.961Z,74.80
2017-09-25T23:55:19.454Z,75.10
2017-09-25T23:57:46.945Z,75.20
